sensor_id;sensor_type;location;lat;lon;timestamp;temperature;humidity
3713;DHT22;1872;51.406;6.856;2023-07-31T00:00:30;17.00;99.90
3713;DHT22;1872;51.406;6.856;2023-07-31T00:02:56;17.00;99.90
3713;DHT22;1872;51.406;6.856;2023-07-31T00:05:21;17.00;99.90
3713;DHT22;1872;51.406;6.856;2023-07-31T00:07:47;17.00;99.90
3713;DHT22;1872;51.406;6.856;2023-07-31T00:10:13;16.90;99.90
3713;DHT22;1872;51.406;6.856;2023-07-31T00:12:40;16.90;99.90
3713;DHT22;1872;51.406;6.856;2023-07-31T00:15:07;17.00;99.90
3713;DHT22;1872;51.406;6.856;2023-07-31T00:17:32;17.00;99.90
3713;DHT22;1872;51.406;6.856;2023-07-31T00:19:58;17.00;99.90
3713;DHT22;1872;51.406;6.856;2023-07-31T00:22:24;17.00;99.90
3713;DHT22;1872;51.406;6.856;2023-07-31T00:24:49;17.00;99.90
3713;DHT22;1872;51.406;6.856;2023-07-31T00:27:15;17.00;99.90
3713;DHT22;1872;51.406;6.856;2023-07-31T00:29:42;17.00;99.90
3713;DHT22;1872;51.406;6.856;2023-07-31T00:32:07;17.00;99.90
3713;DHT22;1872;51.406;6.856;2023-07-31T00:34:33;16.90;99.90
3713;DHT22;1872;51.406;6.856;2023-07-31T00:36:59;16.90;99.90
3713;DHT22;1872;51.406;6.856;2023-07-31T00:39:24;17.00;99.90
3713;DHT22;1872;51.406;6.856;2023-07-31T00:41:50;17.00;99.90
3713;DHT22;1872;51.406;6.856;2023-07-31T00:44:16;17.00;99.90
3713;DHT22;1872;51.406;6.856;2023-07-31T00:46:41;17.00;99.90
3713;DHT22;1872;51.406;6.856;2023-07-31T00:49:07;17.00;99.90
3713;DHT22;1872;51.406;6.856;2023-07-31T00:51:33;17.00;99.90
3713;DHT22;1872;51.406;6.856;2023-07-31T00:53:59;17.00;99.90
3713;DHT22;1872;51.406;6.856;2023-07-31T00:56:26;17.00;99.90
3713;DHT22;1872;51.406;6.856;2023-07-31T00:58:53;17.00;99.90
3713;DHT22;1872;51.406;6.856;2023-07-31T01:01:18;17.00;99.90
3713;DHT22;1872;51.406;6.856;2023-07-31T01:03:44;17.00;99.90
3713;DHT22;1872;51.406;6.856;2023-07-31T01:06:37;17.00;99.90
3713;DHT22;1872;51.406;6.856;2023-07-31T01:11:48;16.90;99.90
3713;DHT22;1872;51.406;6.856;2023-07-31T01:14:15;16.90;99.90
3713;DHT22;1872;51.406;6.856;2023-07-31T01:16:41;16.90;99.90
3713;DHT22;1872;51.406;6.856;2023-07-31T01:19:08;16.90;99.90
3713;DHT22;1872;51.406;6.856;2023-07-31T01:27:15;16.90;99.90
3713;DHT22;1872;51.406;6.856;2023-07-31T01:29:56;16.90;99.90
3713;DHT22;1872;51.406;6.856;2023-07-31T01:32:25;17.00;99.90
3713;DHT22;1872;51.406;6.856;2023-07-31T01:34:53;17.00;99.90
3713;DHT22;1872;51.406;6.856;2023-07-31T01:37:19;17.00;99.90
3713;DHT22;1872;51.406;6.856;2023-07-31T01:39:44;17.00;99.90
3713;DHT22;1872;51.406;6.856;2023-07-31T01:42:10;17.00;99.90
3713;DHT22;1872;51.406;6.856;2023-07-31T01:44:35;16.90;99.90
3713;DHT22;1872;51.406;6.856;2023-07-31T01:47:01;16.90;99.90
3713;DHT22;1872;51.406;6.856;2023-07-31T01:49:27;16.90;99.90
3713;DHT22;1872;51.406;6.856;2023-07-31T01:51:52;16.90;99.90
3713;DHT22;1872;51.406;6.856;2023-07-31T01:54:18;16.90;99.90
3713;DHT22;1872;51.406;6.856;2023-07-31T01:56:44;16.90;99.90
3713;DHT22;1872;51.406;6.856;2023-07-31T01:59:09;17.00;99.90
3713;DHT22;1872;51.406;6.856;2023-07-31T02:01:35;17.00;99.90
3713;DHT22;1872;51.406;6.856;2023-07-31T02:04:00;17.00;99.90
3713;DHT22;1872;51.406;6.856;2023-07-31T02:06:26;17.00;99.90
3713;DHT22;1872;51.406;6.856;2023-07-31T02:08:52;16.90;99.90
3713;DHT22;1872;51.406;6.856;2023-07-31T02:11:18;16.90;99.90
3713;DHT22;1872;51.406;6.856;2023-07-31T02:13:43;16.90;99.90
3713;DHT22;1872;51.406;6.856;2023-07-31T02:16:09;16.90;99.90
3713;DHT22;1872;51.406;6.856;2023-07-31T02:18:34;16.90;99.90
3713;DHT22;1872;51.406;6.856;2023-07-31T02:21:00;16.90;99.90
3713;DHT22;1872;51.406;6.856;2023-07-31T02:23:26;16.90;99.90
3713;DHT22;1872;51.406;6.856;2023-07-31T02:25:51;16.90;99.90
3713;DHT22;1872;51.406;6.856;2023-07-31T02:28:17;16.90;99.90
3713;DHT22;1872;51.406;6.856;2023-07-31T02:30:46;16.90;99.90
3713;DHT22;1872;51.406;6.856;2023-07-31T02:33:12;16.80;99.90
3713;DHT22;1872;51.406;6.856;2023-07-31T02:35:37;16.80;99.90
3713;DHT22;1872;51.406;6.856;2023-07-31T02:38:03;16.80;99.90
3713;DHT22;1872;51.406;6.856;2023-07-31T02:40:28;16.80;99.90
3713;DHT22;1872;51.406;6.856;2023-07-31T02:42:54;16.80;99.90
3713;DHT22;1872;51.406;6.856;2023-07-31T02:45:20;16.80;99.90
3713;DHT22;1872;51.406;6.856;2023-07-31T02:47:45;16.80;99.90
3713;DHT22;1872;51.406;6.856;2023-07-31T02:50:11;16.70;99.90
3713;DHT22;1872;51.406;6.856;2023-07-31T02:52:36;16.80;99.90
3713;DHT22;1872;51.406;6.856;2023-07-31T02:55:02;16.80;99.90
3713;DHT22;1872;51.406;6.856;2023-07-31T02:57:28;16.80;99.90
3713;DHT22;1872;51.406;6.856;2023-07-31T02:59:53;16.80;99.90
3713;DHT22;1872;51.406;6.856;2023-07-31T03:02:19;16.70;99.90
3713;DHT22;1872;51.406;6.856;2023-07-31T03:04:45;16.70;99.90
3713;DHT22;1872;51.406;6.856;2023-07-31T03:07:11;16.70;99.90
3713;DHT22;1872;51.406;6.856;2023-07-31T03:09:36;16.80;99.90
3713;DHT22;1872;51.406;6.856;2023-07-31T03:12:02;16.70;99.90
3713;DHT22;1872;51.406;6.856;2023-07-31T03:14:28;16.70;99.90
3713;DHT22;1872;51.406;6.856;2023-07-31T03:16:54;16.70;99.90
3713;DHT22;1872;51.406;6.856;2023-07-31T03:19:19;16.70;99.90
3713;DHT22;1872;51.406;6.856;2023-07-31T03:21:45;16.70;99.90
3713;DHT22;1872;51.406;6.856;2023-07-31T03:24:11;16.80;99.90
3713;DHT22;1872;51.406;6.856;2023-07-31T03:26:37;16.80;99.90
3713;DHT22;1872;51.406;6.856;2023-07-31T03:29:03;16.80;99.90
3713;DHT22;1872;51.406;6.856;2023-07-31T03:31:29;16.80;99.90
3713;DHT22;1872;51.406;6.856;2023-07-31T03:33:55;16.80;99.90
3713;DHT22;1872;51.406;6.856;2023-07-31T03:36:20;16.80;99.90
3713;DHT22;1872;51.406;6.856;2023-07-31T03:38:46;16.80;99.90
3713;DHT22;1872;51.406;6.856;2023-07-31T03:41:12;16.80;99.90
3713;DHT22;1872;51.406;6.856;2023-07-31T03:43:38;16.80;99.90
3713;DHT22;1872;51.406;6.856;2023-07-31T03:46:03;16.90;99.90
3713;DHT22;1872;51.406;6.856;2023-07-31T03:48:29;17.00;99.90
3713;DHT22;1872;51.406;6.856;2023-07-31T03:50:55;17.00;99.90
3713;DHT22;1872;51.406;6.856;2023-07-31T03:53:21;17.00;99.90
3713;DHT22;1872;51.406;6.856;2023-07-31T03:55:46;17.00;99.90
3713;DHT22;1872;51.406;6.856;2023-07-31T03:58:14;17.00;99.90
3713;DHT22;1872;51.406;6.856;2023-07-31T04:00:40;17.00;99.90
3713;DHT22;1872;51.406;6.856;2023-07-31T04:03:06;17.00;99.90
3713;DHT22;1872;51.406;6.856;2023-07-31T04:05:32;17.00;99.90
3713;DHT22;1872;51.406;6.856;2023-07-31T04:07:58;17.00;99.90
3713;DHT22;1872;51.406;6.856;2023-07-31T04:10:24;17.00;99.90
3713;DHT22;1872;51.406;6.856;2023-07-31T04:12:49;17.00;99.90
3713;DHT22;1872;51.406;6.856;2023-07-31T04:15:15;16.90;99.90
3713;DHT22;1872;51.406;6.856;2023-07-31T04:17:41;16.90;99.90
3713;DHT22;1872;51.406;6.856;2023-07-31T04:20:07;17.00;99.90
3713;DHT22;1872;51.406;6.856;2023-07-31T04:22:33;17.00;99.90
3713;DHT22;1872;51.406;6.856;2023-07-31T04:24:58;17.00;99.90
3713;DHT22;1872;51.406;6.856;2023-07-31T04:27:24;17.00;99.90
3713;DHT22;1872;51.406;6.856;2023-07-31T04:29:51;17.00;99.90
3713;DHT22;1872;51.406;6.856;2023-07-31T04:32:17;17.00;99.90
3713;DHT22;1872;51.406;6.856;2023-07-31T04:34:43;17.00;99.90
3713;DHT22;1872;51.406;6.856;2023-07-31T04:37:08;16.90;99.90
3713;DHT22;1872;51.406;6.856;2023-07-31T04:39:34;16.90;99.90
3713;DHT22;1872;51.406;6.856;2023-07-31T04:41:59;16.90;99.90
3713;DHT22;1872;51.406;6.856;2023-07-31T04:44:25;16.90;99.90
3713;DHT22;1872;51.406;6.856;2023-07-31T04:46:51;16.90;99.90
3713;DHT22;1872;51.406;6.856;2023-07-31T04:49:16;16.90;99.90
3713;DHT22;1872;51.406;6.856;2023-07-31T04:51:42;16.90;99.90
3713;DHT22;1872;51.406;6.856;2023-07-31T04:54:08;16.90;99.90
3713;DHT22;1872;51.406;6.856;2023-07-31T04:56:33;16.90;99.90
3713;DHT22;1872;51.406;6.856;2023-07-31T04:59:00;16.90;99.90
3713;DHT22;1872;51.406;6.856;2023-07-31T05:01:26;16.90;99.90
3713;DHT22;1872;51.406;6.856;2023-07-31T05:03:51;16.90;99.90
3713;DHT22;1872;51.406;6.856;2023-07-31T05:06:17;16.90;99.90
3713;DHT22;1872;51.406;6.856;2023-07-31T05:08:42;17.00;99.90
3713;DHT22;1872;51.406;6.856;2023-07-31T05:11:08;17.00;99.90
3713;DHT22;1872;51.406;6.856;2023-07-31T05:13:34;17.00;99.90
3713;DHT22;1872;51.406;6.856;2023-07-31T05:15:59;17.00;99.90
3713;DHT22;1872;51.406;6.856;2023-07-31T05:18:25;17.00;99.90
3713;DHT22;1872;51.406;6.856;2023-07-31T05:20:50;17.00;99.90
3713;DHT22;1872;51.406;6.856;2023-07-31T05:23:16;17.00;99.90
3713;DHT22;1872;51.406;6.856;2023-07-31T05:25:41;17.00;99.90
3713;DHT22;1872;51.406;6.856;2023-07-31T05:28:07;17.00;99.90
3713;DHT22;1872;51.406;6.856;2023-07-31T05:30:33;17.00;99.90
3713;DHT22;1872;51.406;6.856;2023-07-31T05:32:59;17.10;99.90
3713;DHT22;1872;51.406;6.856;2023-07-31T05:35:24;17.10;99.90
3713;DHT22;1872;51.406;6.856;2023-07-31T05:37:50;17.10;99.90
3713;DHT22;1872;51.406;6.856;2023-07-31T05:40:15;17.10;99.90
3713;DHT22;1872;51.406;6.856;2023-07-31T05:42:41;17.10;99.90
3713;DHT22;1872;51.406;6.856;2023-07-31T05:45:07;17.10;99.90
3713;DHT22;1872;51.406;6.856;2023-07-31T05:47:33;17.10;99.90
3713;DHT22;1872;51.406;6.856;2023-07-31T05:49:59;17.10;99.90
3713;DHT22;1872;51.406;6.856;2023-07-31T05:52:25;17.10;99.90
3713;DHT22;1872;51.406;6.856;2023-07-31T05:54:50;17.10;99.90
3713;DHT22;1872;51.406;6.856;2023-07-31T05:57:16;17.10;99.90
3713;DHT22;1872;51.406;6.856;2023-07-31T05:59:42;17.10;99.90
3713;DHT22;1872;51.406;6.856;2023-07-31T06:02:08;17.10;99.90
3713;DHT22;1872;51.406;6.856;2023-07-31T06:04:34;17.10;99.90
3713;DHT22;1872;51.406;6.856;2023-07-31T06:07:03;17.10;99.90
3713;DHT22;1872;51.406;6.856;2023-07-31T06:09:30;17.20;99.90
3713;DHT22;1872;51.406;6.856;2023-07-31T06:11:56;17.20;99.90
3713;DHT22;1872;51.406;6.856;2023-07-31T06:14:22;17.20;99.90
3713;DHT22;1872;51.406;6.856;2023-07-31T06:16:48;17.20;99.90
3713;DHT22;1872;51.406;6.856;2023-07-31T06:19:13;17.20;99.90
3713;DHT22;1872;51.406;6.856;2023-07-31T06:21:39;17.20;99.90
3713;DHT22;1872;51.406;6.856;2023-07-31T06:24:09;17.20;99.90
3713;DHT22;1872;51.406;6.856;2023-07-31T06:26:37;17.20;99.90
3713;DHT22;1872;51.406;6.856;2023-07-31T06:29:03;17.20;99.90
3713;DHT22;1872;51.406;6.856;2023-07-31T06:31:28;17.20;99.90
3713;DHT22;1872;51.406;6.856;2023-07-31T06:33:54;17.30;99.90
3713;DHT22;1872;51.406;6.856;2023-07-31T06:36:20;17.20;99.90
3713;DHT22;1872;51.406;6.856;2023-07-31T06:38:45;17.20;99.90
3713;DHT22;1872;51.406;6.856;2023-07-31T06:41:11;17.20;99.90
3713;DHT22;1872;51.406;6.856;2023-07-31T06:43:37;17.20;99.90
3713;DHT22;1872;51.406;6.856;2023-07-31T06:46:07;17.20;99.90
3713;DHT22;1872;51.406;6.856;2023-07-31T06:48:34;17.20;99.90
3713;DHT22;1872;51.406;6.856;2023-07-31T06:51:00;17.20;99.90
3713;DHT22;1872;51.406;6.856;2023-07-31T06:53:26;17.20;99.90
3713;DHT22;1872;51.406;6.856;2023-07-31T06:55:52;17.10;99.90
3713;DHT22;1872;51.406;6.856;2023-07-31T06:58:18;17.20;99.90
3713;DHT22;1872;51.406;6.856;2023-07-31T07:00:44;17.20;99.90
3713;DHT22;1872;51.406;6.856;2023-07-31T07:03:09;17.20;99.90
3713;DHT22;1872;51.406;6.856;2023-07-31T07:05:46;17.20;99.90
3713;DHT22;1872;51.406;6.856;2023-07-31T07:08:12;17.20;99.90
3713;DHT22;1872;51.406;6.856;2023-07-31T07:10:37;17.20;99.90
3713;DHT22;1872;51.406;6.856;2023-07-31T07:13:03;17.20;99.90
3713;DHT22;1872;51.406;6.856;2023-07-31T07:15:29;17.20;99.90
3713;DHT22;1872;51.406;6.856;2023-07-31T07:17:54;17.20;99.90
3713;DHT22;1872;51.406;6.856;2023-07-31T07:20:20;17.20;99.90
3713;DHT22;1872;51.406;6.856;2023-07-31T07:22:46;17.20;99.90
3713;DHT22;1872;51.406;6.856;2023-07-31T07:25:11;17.20;99.90
3713;DHT22;1872;51.406;6.856;2023-07-31T07:27:37;17.20;99.90
3713;DHT22;1872;51.406;6.856;2023-07-31T07:30:03;17.20;99.90
3713;DHT22;1872;51.406;6.856;2023-07-31T07:32:31;17.20;99.90
3713;DHT22;1872;51.406;6.856;2023-07-31T07:34:57;17.20;99.90
3713;DHT22;1872;51.406;6.856;2023-07-31T07:37:25;17.20;99.90
3713;DHT22;1872;51.406;6.856;2023-07-31T07:39:51;17.10;99.90
3713;DHT22;1872;51.406;6.856;2023-07-31T07:42:16;17.10;99.90
3713;DHT22;1872;51.406;6.856;2023-07-31T07:44:42;17.10;99.90
3713;DHT22;1872;51.406;6.856;2023-07-31T07:47:08;17.20;99.90
3713;DHT22;1872;51.406;6.856;2023-07-31T07:49:34;17.20;99.90
3713;DHT22;1872;51.406;6.856;2023-07-31T07:52:01;17.20;99.90
3713;DHT22;1872;51.406;6.856;2023-07-31T07:54:26;17.20;99.90
3713;DHT22;1872;51.406;6.856;2023-07-31T07:56:52;17.20;99.90
3713;DHT22;1872;51.406;6.856;2023-07-31T07:59:18;17.20;99.90
3713;DHT22;1872;51.406;6.856;2023-07-31T08:01:46;17.20;99.90
3713;DHT22;1872;51.406;6.856;2023-07-31T08:04:12;17.20;99.90
3713;DHT22;1872;51.406;6.856;2023-07-31T08:06:38;17.20;99.90
3713;DHT22;1872;51.406;6.856;2023-07-31T08:09:04;17.20;99.90
3713;DHT22;1872;51.406;6.856;2023-07-31T08:11:33;17.20;99.90
3713;DHT22;1872;51.406;6.856;2023-07-31T08:13:58;17.20;99.90
3713;DHT22;1872;51.406;6.856;2023-07-31T08:16:24;17.30;99.90
3713;DHT22;1872;51.406;6.856;2023-07-31T08:18:50;17.30;99.90
3713;DHT22;1872;51.406;6.856;2023-07-31T08:21:15;17.40;99.90
3713;DHT22;1872;51.406;6.856;2023-07-31T08:23:41;17.40;99.90
3713;DHT22;1872;51.406;6.856;2023-07-31T08:26:07;17.40;99.90
3713;DHT22;1872;51.406;6.856;2023-07-31T08:28:32;17.40;99.90
3713;DHT22;1872;51.406;6.856;2023-07-31T08:30:58;17.40;99.90
3713;DHT22;1872;51.406;6.856;2023-07-31T08:33:24;17.50;99.90
3713;DHT22;1872;51.406;6.856;2023-07-31T08:35:52;17.50;99.90
3713;DHT22;1872;51.406;6.856;2023-07-31T08:38:17;17.50;99.90
3713;DHT22;1872;51.406;6.856;2023-07-31T08:40:43;17.40;99.90
3713;DHT22;1872;51.406;6.856;2023-07-31T08:43:09;17.40;99.90
3713;DHT22;1872;51.406;6.856;2023-07-31T08:45:34;17.40;99.90
3713;DHT22;1872;51.406;6.856;2023-07-31T08:48:01;17.40;99.90
3713;DHT22;1872;51.406;6.856;2023-07-31T08:50:27;17.30;99.90
3713;DHT22;1872;51.406;6.856;2023-07-31T08:52:53;17.40;99.90
3713;DHT22;1872;51.406;6.856;2023-07-31T08:55:21;17.40;99.90
3713;DHT22;1872;51.406;6.856;2023-07-31T08:57:53;17.50;99.90
3713;DHT22;1872;51.406;6.856;2023-07-31T09:00:27;17.50;99.90
3713;DHT22;1872;51.406;6.856;2023-07-31T09:03:09;17.50;99.90
3713;DHT22;1872;51.406;6.856;2023-07-31T09:05:39;17.40;99.90
3713;DHT22;1872;51.406;6.856;2023-07-31T09:08:20;17.40;99.90
3713;DHT22;1872;51.406;6.856;2023-07-31T09:10:46;17.30;99.90
3713;DHT22;1872;51.406;6.856;2023-07-31T09:13:13;17.30;99.90
3713;DHT22;1872;51.406;6.856;2023-07-31T09:15:40;17.30;99.90
3713;DHT22;1872;51.406;6.856;2023-07-31T09:18:08;17.30;99.90
3713;DHT22;1872;51.406;6.856;2023-07-31T09:20:34;17.20;99.90
3713;DHT22;1872;51.406;6.856;2023-07-31T09:23:09;17.20;99.90
3713;DHT22;1872;51.406;6.856;2023-07-31T09:25:35;17.20;99.90
3713;DHT22;1872;51.406;6.856;2023-07-31T09:28:03;17.20;99.90
3713;DHT22;1872;51.406;6.856;2023-07-31T09:30:30;17.30;99.90
3713;DHT22;1872;51.406;6.856;2023-07-31T09:33:04;17.30;99.90
3713;DHT22;1872;51.406;6.856;2023-07-31T09:35:35;17.40;99.90
3713;DHT22;1872;51.406;6.856;2023-07-31T09:38:13;17.30;99.90
3713;DHT22;1872;51.406;6.856;2023-07-31T09:40:44;17.30;99.90
3713;DHT22;1872;51.406;6.856;2023-07-31T09:43:12;17.40;99.90
3713;DHT22;1872;51.406;6.856;2023-07-31T09:45:40;17.40;99.90
3713;DHT22;1872;51.406;6.856;2023-07-31T09:48:16;17.40;99.90
3713;DHT22;1872;51.406;6.856;2023-07-31T09:50:47;17.40;99.90
3713;DHT22;1872;51.406;6.856;2023-07-31T09:53:14;17.40;99.90
3713;DHT22;1872;51.406;6.856;2023-07-31T09:55:41;17.40;99.90
3713;DHT22;1872;51.406;6.856;2023-07-31T09:58:10;17.40;99.90
3713;DHT22;1872;51.406;6.856;2023-07-31T10:00:41;17.40;99.90
3713;DHT22;1872;51.406;6.856;2023-07-31T10:03:09;17.40;99.90
3713;DHT22;1872;51.406;6.856;2023-07-31T10:05:45;17.40;99.90
3713;DHT22;1872;51.406;6.856;2023-07-31T10:08:15;17.50;99.90
3713;DHT22;1872;51.406;6.856;2023-07-31T10:10:43;17.50;99.90
3713;DHT22;1872;51.406;6.856;2023-07-31T10:13:16;17.50;99.90
3713;DHT22;1872;51.406;6.856;2023-07-31T10:15:43;17.50;99.90
3713;DHT22;1872;51.406;6.856;2023-07-31T10:18:09;17.40;99.90
3713;DHT22;1872;51.406;6.856;2023-07-31T10:20:35;17.40;99.90
3713;DHT22;1872;51.406;6.856;2023-07-31T10:23:02;17.40;99.90
3713;DHT22;1872;51.406;6.856;2023-07-31T10:25:29;17.50;99.90
3713;DHT22;1872;51.406;6.856;2023-07-31T10:27:58;17.50;99.90
3713;DHT22;1872;51.406;6.856;2023-07-31T10:30:28;17.50;99.90
3713;DHT22;1872;51.406;6.856;2023-07-31T10:32:57;17.50;99.90
3713;DHT22;1872;51.406;6.856;2023-07-31T10:35:23;17.60;99.90
3713;DHT22;1872;51.406;6.856;2023-07-31T10:38:10;17.50;99.90
3713;DHT22;1872;51.406;6.856;2023-07-31T10:40:37;17.60;99.90
3713;DHT22;1872;51.406;6.856;2023-07-31T10:43:03;17.60;99.90
3713;DHT22;1872;51.406;6.856;2023-07-31T10:45:32;17.60;99.90
3713;DHT22;1872;51.406;6.856;2023-07-31T10:50:47;17.60;99.90
3713;DHT22;1872;51.406;6.856;2023-07-31T10:53:26;17.70;99.90
3713;DHT22;1872;51.406;6.856;2023-07-31T10:55:52;17.70;99.90
3713;DHT22;1872;51.406;6.856;2023-07-31T10:58:19;17.80;99.90
3713;DHT22;1872;51.406;6.856;2023-07-31T11:00:46;17.80;99.90
3713;DHT22;1872;51.406;6.856;2023-07-31T11:03:17;17.90;99.90
3713;DHT22;1872;51.406;6.856;2023-07-31T11:08:26;17.90;99.90
3713;DHT22;1872;51.406;6.856;2023-07-31T11:16:07;18.00;99.90
3713;DHT22;1872;51.406;6.856;2023-07-31T11:18:33;18.10;99.90
3713;DHT22;1872;51.406;6.856;2023-07-31T11:20:58;18.10;99.90
3713;DHT22;1872;51.406;6.856;2023-07-31T11:23:24;18.10;99.90
3713;DHT22;1872;51.406;6.856;2023-07-31T11:25:50;18.20;99.90
3713;DHT22;1872;51.406;6.856;2023-07-31T11:28:17;18.20;99.90
3713;DHT22;1872;51.406;6.856;2023-07-31T11:30:44;18.20;99.90
3713;DHT22;1872;51.406;6.856;2023-07-31T11:33:12;18.30;99.90
3713;DHT22;1872;51.406;6.856;2023-07-31T11:35:47;18.40;99.90
3713;DHT22;1872;51.406;6.856;2023-07-31T11:38:27;18.40;99.90
3713;DHT22;1872;51.406;6.856;2023-07-31T11:40:55;18.40;99.90
3713;DHT22;1872;51.406;6.856;2023-07-31T11:43:24;18.40;99.90
3713;DHT22;1872;51.406;6.856;2023-07-31T11:45:57;18.40;99.90
3713;DHT22;1872;51.406;6.856;2023-07-31T11:48:34;18.40;99.90
3713;DHT22;1872;51.406;6.856;2023-07-31T11:51:12;18.50;99.90
3713;DHT22;1872;51.406;6.856;2023-07-31T11:53:51;18.50;99.90
3713;DHT22;1872;51.406;6.856;2023-07-31T11:56:19;18.50;99.90
3713;DHT22;1872;51.406;6.856;2023-07-31T11:58:58;18.50;99.90
3713;DHT22;1872;51.406;6.856;2023-07-31T12:01:25;18.50;99.90
3713;DHT22;1872;51.406;6.856;2023-07-31T12:03:51;18.40;99.90
3713;DHT22;1872;51.406;6.856;2023-07-31T12:06:17;18.40;99.90
3713;DHT22;1872;51.406;6.856;2023-07-31T12:08:46;18.40;99.90
3713;DHT22;1872;51.406;6.856;2023-07-31T12:11:14;18.30;99.90
3713;DHT22;1872;51.406;6.856;2023-07-31T12:13:40;18.30;99.90
3713;DHT22;1872;51.406;6.856;2023-07-31T12:16:06;18.30;99.90
3713;DHT22;1872;51.406;6.856;2023-07-31T12:18:36;18.20;99.90
3713;DHT22;1872;51.406;6.856;2023-07-31T12:21:05;18.20;99.90
3713;DHT22;1872;51.406;6.856;2023-07-31T12:23:32;18.20;99.90
3713;DHT22;1872;51.406;6.856;2023-07-31T12:26:10;18.20;99.90
3713;DHT22;1872;51.406;6.856;2023-07-31T12:28:37;18.20;99.90
3713;DHT22;1872;51.406;6.856;2023-07-31T12:31:04;18.20;99.90
3713;DHT22;1872;51.406;6.856;2023-07-31T12:33:35;18.20;99.90
3713;DHT22;1872;51.406;6.856;2023-07-31T12:36:02;18.20;99.90
3713;DHT22;1872;51.406;6.856;2023-07-31T12:38:29;18.20;99.90
3713;DHT22;1872;51.406;6.856;2023-07-31T12:40:55;18.20;99.90
3713;DHT22;1872;51.406;6.856;2023-07-31T12:43:21;18.30;99.90
3713;DHT22;1872;51.406;6.856;2023-07-31T12:45:49;18.30;99.90
3713;DHT22;1872;51.406;6.856;2023-07-31T12:48:15;18.40;99.90
3713;DHT22;1872;51.406;6.856;2023-07-31T12:50:40;18.40;99.90
3713;DHT22;1872;51.406;6.856;2023-07-31T12:53:06;18.40;99.90
3713;DHT22;1872;51.406;6.856;2023-07-31T12:55:33;18.40;99.90
3713;DHT22;1872;51.406;6.856;2023-07-31T12:58:00;18.40;99.90
3713;DHT22;1872;51.406;6.856;2023-07-31T13:00:26;18.40;99.90
3713;DHT22;1872;51.406;6.856;2023-07-31T13:02:52;18.30;99.90
3713;DHT22;1872;51.406;6.856;2023-07-31T13:05:18;18.40;99.90
3713;DHT22;1872;51.406;6.856;2023-07-31T13:07:48;18.30;99.90
3713;DHT22;1872;51.406;6.856;2023-07-31T13:10:13;18.40;99.90
3713;DHT22;1872;51.406;6.856;2023-07-31T13:12:39;18.40;99.90
3713;DHT22;1872;51.406;6.856;2023-07-31T13:15:06;18.40;99.90
3713;DHT22;1872;51.406;6.856;2023-07-31T13:17:32;18.40;99.90
3713;DHT22;1872;51.406;6.856;2023-07-31T13:19:58;18.50;99.90
3713;DHT22;1872;51.406;6.856;2023-07-31T13:22:24;18.50;99.90
3713;DHT22;1872;51.406;6.856;2023-07-31T13:24:54;18.50;99.90
3713;DHT22;1872;51.406;6.856;2023-07-31T13:27:25;18.50;99.90
3713;DHT22;1872;51.406;6.856;2023-07-31T13:29:53;18.50;99.90
3713;DHT22;1872;51.406;6.856;2023-07-31T13:32:19;18.50;99.90
3713;DHT22;1872;51.406;6.856;2023-07-31T13:34:46;18.50;99.90
3713;DHT22;1872;51.406;6.856;2023-07-31T13:37:13;18.60;99.90
3713;DHT22;1872;51.406;6.856;2023-07-31T13:39:39;18.60;99.90
3713;DHT22;1872;51.406;6.856;2023-07-31T13:42:06;18.60;99.90
3713;DHT22;1872;51.406;6.856;2023-07-31T13:44:40;18.60;99.90
3713;DHT22;1872;51.406;6.856;2023-07-31T13:47:13;18.70;99.90
3713;DHT22;1872;51.406;6.856;2023-07-31T13:49:39;18.70;99.90
3713;DHT22;1872;51.406;6.856;2023-07-31T13:52:04;18.70;99.90
3713;DHT22;1872;51.406;6.856;2023-07-31T13:54:30;18.80;99.90
3713;DHT22;1872;51.406;6.856;2023-07-31T13:56:56;18.80;99.90
3713;DHT22;1872;51.406;6.856;2023-07-31T13:59:22;18.80;99.90
3713;DHT22;1872;51.406;6.856;2023-07-31T14:01:47;18.80;99.90
3713;DHT22;1872;51.406;6.856;2023-07-31T14:04:13;18.90;99.90
3713;DHT22;1872;51.406;6.856;2023-07-31T14:06:39;19.00;99.90
3713;DHT22;1872;51.406;6.856;2023-07-31T14:09:04;19.00;99.90
3713;DHT22;1872;51.406;6.856;2023-07-31T14:11:34;19.10;99.90
3713;DHT22;1872;51.406;6.856;2023-07-31T14:14:00;19.30;99.90
3713;DHT22;1872;51.406;6.856;2023-07-31T14:16:27;19.30;99.90
3713;DHT22;1872;51.406;6.856;2023-07-31T14:18:53;19.30;99.90
3713;DHT22;1872;51.406;6.856;2023-07-31T14:21:19;19.30;99.90
3713;DHT22;1872;51.406;6.856;2023-07-31T14:23:46;19.30;99.90
3713;DHT22;1872;51.406;6.856;2023-07-31T14:26:11;19.30;99.90
3713;DHT22;1872;51.406;6.856;2023-07-31T14:28:37;19.30;99.90
3713;DHT22;1872;51.406;6.856;2023-07-31T14:31:03;19.20;99.90
3713;DHT22;1872;51.406;6.856;2023-07-31T14:33:29;19.10;99.90
3713;DHT22;1872;51.406;6.856;2023-07-31T14:35:54;19.10;99.90
3713;DHT22;1872;51.406;6.856;2023-07-31T14:38:20;19.10;99.90
3713;DHT22;1872;51.406;6.856;2023-07-31T14:40:46;19.00;99.90
3713;DHT22;1872;51.406;6.856;2023-07-31T14:43:12;18.90;99.90
3713;DHT22;1872;51.406;6.856;2023-07-31T14:45:37;18.90;99.90
3713;DHT22;1872;51.406;6.856;2023-07-31T14:48:03;18.80;99.90
3713;DHT22;1872;51.406;6.856;2023-07-31T14:50:29;18.80;99.90
3713;DHT22;1872;51.406;6.856;2023-07-31T14:52:55;18.80;99.90
3713;DHT22;1872;51.406;6.856;2023-07-31T14:55:21;18.80;99.90
3713;DHT22;1872;51.406;6.856;2023-07-31T14:57:47;18.80;99.90
3713;DHT22;1872;51.406;6.856;2023-07-31T15:00:14;18.70;99.90
3713;DHT22;1872;51.406;6.856;2023-07-31T15:02:40;18.70;99.90
3713;DHT22;1872;51.406;6.856;2023-07-31T15:05:07;18.70;99.90
3713;DHT22;1872;51.406;6.856;2023-07-31T15:07:33;18.60;99.90
3713;DHT22;1872;51.406;6.856;2023-07-31T15:09:59;18.60;99.90
3713;DHT22;1872;51.406;6.856;2023-07-31T15:12:26;18.60;99.90
3713;DHT22;1872;51.406;6.856;2023-07-31T15:14:52;18.60;99.90
3713;DHT22;1872;51.406;6.856;2023-07-31T15:17:20;18.50;99.90
3713;DHT22;1872;51.406;6.856;2023-07-31T15:19:49;18.50;99.90
3713;DHT22;1872;51.406;6.856;2023-07-31T15:22:15;18.50;99.90
3713;DHT22;1872;51.406;6.856;2023-07-31T15:24:40;18.50;99.90
3713;DHT22;1872;51.406;6.856;2023-07-31T15:27:06;18.50;99.90
3713;DHT22;1872;51.406;6.856;2023-07-31T15:29:34;18.50;99.90
3713;DHT22;1872;51.406;6.856;2023-07-31T15:32:03;18.50;99.90
3713;DHT22;1872;51.406;6.856;2023-07-31T15:34:30;18.50;99.90
3713;DHT22;1872;51.406;6.856;2023-07-31T15:36:55;18.60;99.90
3713;DHT22;1872;51.406;6.856;2023-07-31T15:39:21;18.60;99.90
3713;DHT22;1872;51.406;6.856;2023-07-31T15:41:47;18.70;99.90
3713;DHT22;1872;51.406;6.856;2023-07-31T15:44:12;18.70;99.90
3713;DHT22;1872;51.406;6.856;2023-07-31T15:46:39;18.70;99.90
3713;DHT22;1872;51.406;6.856;2023-07-31T15:49:07;18.70;99.90
3713;DHT22;1872;51.406;6.856;2023-07-31T15:51:33;18.80;99.90
3713;DHT22;1872;51.406;6.856;2023-07-31T15:53:59;18.80;99.90
3713;DHT22;1872;51.406;6.856;2023-07-31T15:56:25;18.80;99.90
3713;DHT22;1872;51.406;6.856;2023-07-31T15:58:58;18.80;99.90
3713;DHT22;1872;51.406;6.856;2023-07-31T16:01:26;18.80;99.90
3713;DHT22;1872;51.406;6.856;2023-07-31T16:03:51;18.80;99.90
3713;DHT22;1872;51.406;6.856;2023-07-31T16:06:18;18.70;99.90
3713;DHT22;1872;51.406;6.856;2023-07-31T16:08:46;18.70;99.90
3713;DHT22;1872;51.406;6.856;2023-07-31T16:11:19;18.60;99.90
3713;DHT22;1872;51.406;6.856;2023-07-31T16:13:45;18.50;99.90
3713;DHT22;1872;51.406;6.856;2023-07-31T16:16:11;18.40;99.90
3713;DHT22;1872;51.406;6.856;2023-07-31T16:18:36;18.40;99.90